sensor_id;sensor_type;location;lat;lon;timestamp;temperature;humidity
1728;DHT22;861;48.808;9.006;2023-03-23T04:55:26;14.30;99.90
1728;DHT22;861;48.808;9.006;2023-03-23T04:57:52;14.20;99.90
1728;DHT22;861;48.808;9.006;2023-03-23T05:00:19;14.30;99.90
1728;DHT22;861;48.808;9.006;2023-03-23T05:02:46;14.30;99.90
1728;DHT22;861;48.808;9.006;2023-03-23T05:05:19;14.30;99.90
1728;DHT22;861;48.808;9.006;2023-03-23T05:07:46;14.30;99.90
1728;DHT22;861;48.808;9.006;2023-03-23T05:12:42;14.30;99.90
1728;DHT22;861;48.808;9.006;2023-03-23T05:15:13;14.30;99.90
1728;DHT22;861;48.808;9.006;2023-03-23T05:17:43;14.40;99.90
1728;DHT22;861;48.808;9.006;2023-03-23T05:20:14;14.40;99.90
1728;DHT22;861;48.808;9.006;2023-03-23T05:22:49;14.30;99.90
1728;DHT22;861;48.808;9.006;2023-03-23T05:25:17;14.20;99.90
1728;DHT22;861;48.808;9.006;2023-03-23T05:27:47;14.20;99.90
1728;DHT22;861;48.808;9.006;2023-03-23T05:30:21;14.20;99.90
1728;DHT22;861;48.808;9.006;2023-03-23T05:32:50;14.30;99.90
1728;DHT22;861;48.808;9.006;2023-03-23T05:35:19;14.20;99.90
1728;DHT22;861;48.808;9.006;2023-03-23T05:37:46;14.20;99.90
1728;DHT22;861;48.808;9.006;2023-03-23T05:40:13;14.20;99.90
1728;DHT22;861;48.808;9.006;2023-03-23T05:42:41;14.10;99.90
1728;DHT22;861;48.808;9.006;2023-03-23T05:45:10;14.20;99.90
1728;DHT22;861;48.808;9.006;2023-03-23T05:47:40;14.20;99.90
1728;DHT22;861;48.808;9.006;2023-03-23T05:50:09;14.20;99.90
1728;DHT22;861;48.808;9.006;2023-03-23T05:52:38;14.10;99.90
1728;DHT22;861;48.808;9.006;2023-03-23T05:55:07;14.10;99.90
1728;DHT22;861;48.808;9.006;2023-03-23T05:57:35;14.10;99.90
1728;DHT22;861;48.808;9.006;2023-03-23T06:00:02;14.10;99.90
1728;DHT22;861;48.808;9.006;2023-03-23T06:02:37;14.20;99.90
1728;DHT22;861;48.808;9.006;2023-03-23T06:05:04;14.20;99.90
1728;DHT22;861;48.808;9.006;2023-03-23T06:07:32;14.30;99.90
1728;DHT22;861;48.808;9.006;2023-03-23T06:09:58;14.30;99.90
1728;DHT22;861;48.808;9.006;2023-03-23T06:12:24;14.30;99.90
1728;DHT22;861;48.808;9.006;2023-03-23T06:14:51;14.20;99.90
1728;DHT22;861;48.808;9.006;2023-03-23T06:17:18;14.20;99.90
1728;DHT22;861;48.808;9.006;2023-03-23T06:19:44;14.20;99.90
1728;DHT22;861;48.808;9.006;2023-03-23T06:22:15;14.20;99.90
1728;DHT22;861;48.808;9.006;2023-03-23T06:24:43;14.20;99.90
1728;DHT22;861;48.808;9.006;2023-03-23T06:27:10;14.20;99.90
1728;DHT22;861;48.808;9.006;2023-03-23T06:29:37;14.30;99.90
1728;DHT22;861;48.808;9.006;2023-03-23T06:32:04;14.10;99.90
1728;DHT22;861;48.808;9.006;2023-03-23T06:34:32;14.10;99.90
1728;DHT22;861;48.808;9.006;2023-03-23T06:36:59;14.00;99.90
1728;DHT22;861;48.808;9.006;2023-03-23T06:39:26;14.10;99.90
1728;DHT22;861;48.808;9.006;2023-03-23T06:41:52;14.10;99.90
1728;DHT22;861;48.808;9.006;2023-03-23T06:44:18;14.10;99.90
1728;DHT22;861;48.808;9.006;2023-03-23T06:46:44;14.20;99.90
1728;DHT22;861;48.808;9.006;2023-03-23T06:49:11;14.30;99.90
1728;DHT22;861;48.808;9.006;2023-03-23T06:51:37;14.40;99.90
1728;DHT22;861;48.808;9.006;2023-03-23T06:54:04;14.40;99.90
1728;DHT22;861;48.808;9.006;2023-03-23T06:56:31;14.40;99.90
1728;DHT22;861;48.808;9.006;2023-03-23T06:58:57;14.40;99.90
1728;DHT22;861;48.808;9.006;2023-03-23T07:01:23;14.50;99.90
1728;DHT22;861;48.808;9.006;2023-03-23T07:03:50;14.40;99.90
1728;DHT22;861;48.808;9.006;2023-03-23T07:06:16;14.40;99.90
1728;DHT22;861;48.808;9.006;2023-03-23T07:08:42;14.30;99.90
1728;DHT22;861;48.808;9.006;2023-03-23T07:11:08;14.30;99.90
1728;DHT22;861;48.808;9.006;2023-03-23T07:13:36;14.20;99.90
1728;DHT22;861;48.808;9.006;2023-03-23T07:16:05;14.30;99.90
1728;DHT22;861;48.808;9.006;2023-03-23T07:18:33;14.40;99.90
1728;DHT22;861;48.808;9.006;2023-03-23T07:20:59;14.50;99.90
1728;DHT22;861;48.808;9.006;2023-03-23T07:23:26;14.60;99.90
1728;DHT22;861;48.808;9.006;2023-03-23T07:25:52;14.60;99.90
1728;DHT22;861;48.808;9.006;2023-03-23T07:28:19;14.70;99.90
1728;DHT22;861;48.808;9.006;2023-03-23T07:30:45;14.60;99.90
1728;DHT22;861;48.808;9.006;2023-03-23T07:33:12;14.70;99.90
1728;DHT22;861;48.808;9.006;2023-03-23T07:35:39;14.70;99.90
1728;DHT22;861;48.808;9.006;2023-03-23T07:38:06;14.70;99.90
1728;DHT22;861;48.808;9.006;2023-03-23T07:40:33;14.70;99.90
1728;DHT22;861;48.808;9.006;2023-03-23T07:43:02;14.70;99.90
1728;DHT22;861;48.808;9.006;2023-03-23T07:45:31;14.70;99.90
1728;DHT22;861;48.808;9.006;2023-03-23T07:47:58;14.80;99.90
1728;DHT22;861;48.808;9.006;2023-03-23T07:50:26;15.00;99.90
1728;DHT22;861;48.808;9.006;2023-03-23T07:52:57;15.00;99.90
1728;DHT22;861;48.808;9.006;2023-03-23T07:55:25;15.10;99.90
1728;DHT22;861;48.808;9.006;2023-03-23T07:57:54;15.20;99.90
1728;DHT22;861;48.808;9.006;2023-03-23T08:00:23;15.20;99.90
1728;DHT22;861;48.808;9.006;2023-03-23T08:02:54;15.30;99.90
1728;DHT22;861;48.808;9.006;2023-03-23T08:05:26;15.30;99.90
1728;DHT22;861;48.808;9.006;2023-03-23T08:07:58;15.30;99.90
1728;DHT22;861;48.808;9.006;2023-03-23T08:10:25;15.20;99.90
1728;DHT22;861;48.808;9.006;2023-03-23T08:12:56;15.20;99.90
1728;DHT22;861;48.808;9.006;2023-03-23T08:15:23;15.30;99.90
1728;DHT22;861;48.808;9.006;2023-03-23T08:17:50;15.30;99.90
1728;DHT22;861;48.808;9.006;2023-03-23T08:20:18;15.30;99.90
1728;DHT22;861;48.808;9.006;2023-03-23T08:22:52;15.30;99.90
1728;DHT22;861;48.808;9.006;2023-03-23T08:25:24;15.30;99.90
1728;DHT22;861;48.808;9.006;2023-03-23T08:27:53;15.30;99.90
1728;DHT22;861;48.808;9.006;2023-03-23T08:30:21;15.30;99.90
1728;DHT22;861;48.808;9.006;2023-03-23T08:32:49;15.30;99.90
1728;DHT22;861;48.808;9.006;2023-03-23T08:35:18;15.30;99.90
1728;DHT22;861;48.808;9.006;2023-03-23T08:37:46;15.30;99.90
1728;DHT22;861;48.808;9.006;2023-03-23T08:40:18;15.40;99.90
1728;DHT22;861;48.808;9.006;2023-03-23T08:42:49;15.40;99.90
1728;DHT22;861;48.808;9.006;2023-03-23T08:45:22;15.40;99.90
1728;DHT22;861;48.808;9.006;2023-03-23T08:47:51;15.40;99.90
1728;DHT22;861;48.808;9.006;2023-03-23T08:50:27;15.30;99.90
1728;DHT22;861;48.808;9.006;2023-03-23T08:52:56;15.00;99.90
1728;DHT22;861;48.808;9.006;2023-03-23T08:55:23;15.20;99.90
1728;DHT22;861;48.808;9.006;2023-03-23T08:57:50;15.20;99.90
1728;DHT22;861;48.808;9.006;2023-03-23T09:00:21;15.10;99.90
1728;DHT22;861;48.808;9.006;2023-03-23T09:02:52;14.90;99.90
1728;DHT22;861;48.808;9.006;2023-03-23T09:05:25;15.00;99.90
1728;DHT22;861;48.808;9.006;2023-03-23T09:07:57;14.90;99.90
1728;DHT22;861;48.808;9.006;2023-03-23T09:10:28;15.10;99.90
1728;DHT22;861;48.808;9.006;2023-03-23T09:12:56;15.00;99.90
1728;DHT22;861;48.808;9.006;2023-03-23T09:15:24;15.10;99.90
1728;DHT22;861;48.808;9.006;2023-03-23T09:17:52;15.20;99.90
1728;DHT22;861;48.808;9.006;2023-03-23T09:20:24;15.20;99.90
1728;DHT22;861;48.808;9.006;2023-03-23T09:22:56;15.20;99.90
1728;DHT22;861;48.808;9.006;2023-03-23T09:25:27;15.30;99.90
1728;DHT22;861;48.808;9.006;2023-03-23T09:27:57;15.50;99.90
1728;DHT22;861;48.808;9.006;2023-03-23T09:30:28;15.50;99.90
1728;DHT22;861;48.808;9.006;2023-03-23T09:33:01;15.60;99.90
1728;DHT22;861;48.808;9.006;2023-03-23T09:35:28;15.70;99.90
1728;DHT22;861;48.808;9.006;2023-03-23T09:37:57;15.60;99.90
1728;DHT22;861;48.808;9.006;2023-03-23T09:53:20;15.70;99.90
1728;DHT22;861;48.808;9.006;2023-03-23T09:56:01;15.60;99.90
1728;DHT22;861;48.808;9.006;2023-03-23T09:58:59;15.50;99.90
1728;DHT22;861;48.808;9.006;2023-03-23T10:01:38;15.60;99.90
1728;DHT22;861;48.808;9.006;2023-03-23T10:07:20;15.50;99.90
1728;DHT22;861;48.808;9.006;2023-03-23T10:10:01;15.80;99.90
1728;DHT22;861;48.808;9.006;2023-03-23T10:12:52;15.80;99.90
1728;DHT22;861;48.808;9.006;2023-03-23T10:15:36;15.90;99.90
1728;DHT22;861;48.808;9.006;2023-03-23T10:18:27;15.90;99.90
1728;DHT22;861;48.808;9.006;2023-03-23T10:21:11;15.80;99.90
1728;DHT22;861;48.808;9.006;2023-03-23T10:24:02;15.80;99.90
1728;DHT22;861;48.808;9.006;2023-03-23T10:27:07;15.90;99.90
1728;DHT22;861;48.808;9.006;2023-03-23T10:30:23;15.90;99.90
1728;DHT22;861;48.808;9.006;2023-03-23T10:36:12;15.80;99.90
1728;DHT22;861;48.808;9.006;2023-03-23T10:39:16;15.80;99.90
1728;DHT22;861;48.808;9.006;2023-03-23T10:41:47;15.90;99.90
1728;DHT22;861;48.808;9.006;2023-03-23T10:44:24;15.90;99.90
1728;DHT22;861;48.808;9.006;2023-03-23T10:47:05;15.80;99.90
1728;DHT22;861;48.808;9.006;2023-03-23T10:49:42;15.90;99.90
1728;DHT22;861;48.808;9.006;2023-03-23T10:52:37;16.00;99.90
1728;DHT22;861;48.808;9.006;2023-03-23T10:55:11;16.20;99.90
1728;DHT22;861;48.808;9.006;2023-03-23T10:58:09;16.40;99.90
1728;DHT22;861;48.808;9.006;2023-03-23T11:00:47;16.60;99.90
1728;DHT22;861;48.808;9.006;2023-03-23T11:06:04;16.60;99.90
1728;DHT22;861;48.808;9.006;2023-03-23T11:09:14;16.50;99.90
1728;DHT22;861;48.808;9.006;2023-03-23T11:11:54;16.30;99.90
1728;DHT22;861;48.808;9.006;2023-03-23T11:14:36;16.30;99.90
1728;DHT22;861;48.808;9.006;2023-03-23T11:17:22;16.20;99.90
1728;DHT22;861;48.808;9.006;2023-03-23T11:19:54;16.30;99.90
1728;DHT22;861;48.808;9.006;2023-03-23T11:22:32;16.20;99.90
1728;DHT22;861;48.808;9.006;2023-03-23T11:25:05;16.20;99.90
1728;DHT22;861;48.808;9.006;2023-03-23T11:27:34;16.20;99.90
1728;DHT22;861;48.808;9.006;2023-03-23T11:30:30;16.30;99.90
1728;DHT22;861;48.808;9.006;2023-03-23T11:33:02;16.50;99.90
1728;DHT22;861;48.808;9.006;2023-03-23T11:35:29;16.60;99.90
1728;DHT22;861;48.808;9.006;2023-03-23T11:37:58;16.50;99.90
1728;DHT22;861;48.808;9.006;2023-03-23T11:40:47;16.70;99.90
1728;DHT22;861;48.808;9.006;2023-03-23T11:43:26;16.50;99.90
1728;DHT22;861;48.808;9.006;2023-03-23T11:46:03;16.50;99.90
1728;DHT22;861;48.808;9.006;2023-03-23T11:49:15;16.60;99.90
1728;DHT22;861;48.808;9.006;2023-03-23T11:55:23;16.70;99.90
1728;DHT22;861;48.808;9.006;2023-03-23T11:58:09;16.80;99.90
1728;DHT22;861;48.808;9.006;2023-03-23T12:01:16;16.80;99.90
1728;DHT22;861;48.808;9.006;2023-03-23T12:14:50;16.70;99.90
1728;DHT22;861;48.808;9.006;2023-03-23T12:17:55;16.70;99.90
1728;DHT22;861;48.808;9.006;2023-03-23T12:25:31;16.80;99.90
1728;DHT22;861;48.808;9.006;2023-03-23T12:28:29;16.80;99.90
1728;DHT22;861;48.808;9.006;2023-03-23T12:31:59;16.80;99.90
1728;DHT22;861;48.808;9.006;2023-03-23T12:35:22;16.70;99.90
1728;DHT22;861;48.808;9.006;2023-03-23T12:42:06;17.10;99.90
1728;DHT22;861;48.808;9.006;2023-03-23T12:48:27;17.50;99.90
1728;DHT22;861;48.808;9.006;2023-03-23T12:54:36;17.60;99.90
1728;DHT22;861;48.808;9.006;2023-03-23T12:57:31;17.60;99.90
1728;DHT22;861;48.808;9.006;2023-03-23T13:04:05;17.40;99.90
1728;DHT22;861;48.808;9.006;2023-03-23T13:07:02;17.50;99.90
1728;DHT22;861;48.808;9.006;2023-03-23T13:12:27;17.60;99.90
1728;DHT22;861;48.808;9.006;2023-03-23T13:19:17;17.70;99.90
1728;DHT22;861;48.808;9.006;2023-03-23T13:25:35;17.60;99.90
1728;DHT22;861;48.808;9.006;2023-03-23T13:28:21;17.60;99.90
1728;DHT22;861;48.808;9.006;2023-03-23T13:31:14;17.60;99.90
1728;DHT22;861;48.808;9.006;2023-03-23T13:33:50;17.40;99.90
1728;DHT22;861;48.808;9.006;2023-03-23T13:36:38;17.40;99.90
1728;DHT22;861;48.808;9.006;2023-03-23T13:39:28;17.40;99.90
1728;DHT22;861;48.808;9.006;2023-03-23T13:45:19;17.20;99.90
1728;DHT22;861;48.808;9.006;2023-03-23T13:48:05;17.20;99.90
1728;DHT22;861;48.808;9.006;2023-03-23T13:50:59;17.20;99.90
1728;DHT22;861;48.808;9.006;2023-03-23T13:53:48;17.20;99.90
1728;DHT22;861;48.808;9.006;2023-03-23T13:56:40;17.20;99.90
1728;DHT22;861;48.808;9.006;2023-03-23T13:59:35;17.20;99.90
1728;DHT22;861;48.808;9.006;2023-03-23T14:11:02;17.00;99.90
1728;DHT22;861;48.808;9.006;2023-03-23T14:14:13;17.00;99.90
1728;DHT22;861;48.808;9.006;2023-03-23T14:16:52;17.20;99.90
1728;DHT22;861;48.808;9.006;2023-03-23T14:19:24;17.20;99.90
1728;DHT22;861;48.808;9.006;2023-03-23T14:22:00;17.20;99.90
1728;DHT22;861;48.808;9.006;2023-03-23T14:24:32;17.10;99.90
1728;DHT22;861;48.808;9.006;2023-03-23T14:29:36;17.10;99.90
1728;DHT22;861;48.808;9.006;2023-03-23T14:32:10;17.10;99.90
1728;DHT22;861;48.808;9.006;2023-03-23T14:34:43;17.00;99.90
1728;DHT22;861;48.808;9.006;2023-03-23T14:37:15;17.30;99.90
1728;DHT22;861;48.808;9.006;2023-03-23T14:39:54;17.30;99.90
1728;DHT22;861;48.808;9.006;2023-03-23T14:42:35;17.30;99.90
1728;DHT22;861;48.808;9.006;2023-03-23T14:45:06;17.20;99.90
1728;DHT22;861;48.808;9.006;2023-03-23T14:47:44;17.20;99.90
1728;DHT22;861;48.808;9.006;2023-03-23T14:50:30;17.20;99.90
1728;DHT22;861;48.808;9.006;2023-03-23T14:53:29;17.20;99.90
1728;DHT22;861;48.808;9.006;2023-03-23T14:56:13;17.30;99.90
1728;DHT22;861;48.808;9.006;2023-03-23T14:58:51;17.30;99.90
1728;DHT22;861;48.808;9.006;2023-03-23T15:01:32;17.30;99.90
1728;DHT22;861;48.808;9.006;2023-03-23T15:04:20;17.40;99.90
1728;DHT22;861;48.808;9.006;2023-03-23T15:07:04;17.50;99.90
1728;DHT22;861;48.808;9.006;2023-03-23T15:09:39;17.60;99.90
1728;DHT22;861;48.808;9.006;2023-03-23T15:12:28;17.70;99.90
1728;DHT22;861;48.808;9.006;2023-03-23T15:15:04;17.70;99.90
1728;DHT22;861;48.808;9.006;2023-03-23T15:17:46;17.60;99.90
1728;DHT22;861;48.808;9.006;2023-03-23T15:20:46;17.60;99.90
1728;DHT22;861;48.808;9.006;2023-03-23T15:23:27;17.50;99.90
1728;DHT22;861;48.808;9.006;2023-03-23T15:25:57;17.30;99.90
1728;DHT22;861;48.808;9.006;2023-03-23T15:28:40;17.30;99.90
1728;DHT22;861;48.808;9.006;2023-03-23T15:31:06;17.30;99.90
1728;DHT22;861;48.808;9.006;2023-03-23T15:33:38;17.30;99.90
1728;DHT22;861;48.808;9.006;2023-03-23T15:36:17;17.20;99.90
1728;DHT22;861;48.808;9.006;2023-03-23T15:38:46;17.30;99.90
1728;DHT22;861;48.808;9.006;2023-03-23T15:41:30;17.30;99.90
1728;DHT22;861;48.808;9.006;2023-03-23T15:44:19;17.20;99.90
1728;DHT22;861;48.808;9.006;2023-03-23T15:47:01;17.30;99.90
1728;DHT22;861;48.808;9.006;2023-03-23T15:49:59;17.20;99.90
1728;DHT22;861;48.808;9.006;2023-03-23T15:52:42;17.20;99.90
1728;DHT22;861;48.808;9.006;2023-03-23T15:55:25;17.20;99.90
1728;DHT22;861;48.808;9.006;2023-03-23T16:00:26;17.20;99.90
1728;DHT22;861;48.808;9.006;2023-03-23T16:03:04;17.20;99.90
1728;DHT22;861;48.808;9.006;2023-03-23T16:08:02;17.00;99.90
1728;DHT22;861;48.808;9.006;2023-03-23T16:10:29;16.90;99.90
1728;DHT22;861;48.808;9.006;2023-03-23T16:12:56;17.00;99.90
1728;DHT22;861;48.808;9.006;2023-03-23T16:15:22;16.90;99.90
1728;DHT22;861;48.808;9.006;2023-03-23T16:17:48;16.90;99.90
1728;DHT22;861;48.808;9.006;2023-03-23T16:20:21;16.90;99.90
1728;DHT22;861;48.808;9.006;2023-03-23T16:22:50;16.80;99.90
1728;DHT22;861;48.808;9.006;2023-03-23T16:25:26;16.70;99.90
1728;DHT22;861;48.808;9.006;2023-03-23T16:27:53;16.70;99.90
1728;DHT22;861;48.808;9.006;2023-03-23T16:30:20;16.60;99.90
1728;DHT22;861;48.808;9.006;2023-03-23T16:32:50;16.70;99.90
1728;DHT22;861;48.808;9.006;2023-03-23T16:35:19;16.60;99.90
1728;DHT22;861;48.808;9.006;2023-03-23T16:37:52;16.60;99.90
1728;DHT22;861;48.808;9.006;2023-03-23T16:40:22;16.70;99.90
1728;DHT22;861;48.808;9.006;2023-03-23T16:42:50;16.50;99.90
1728;DHT22;861;48.808;9.006;2023-03-23T16:45:17;16.50;99.90
1728;DHT22;861;48.808;9.006;2023-03-23T16:48:36;16.50;99.90
1728;DHT22;861;48.808;9.006;2023-03-23T16:51:03;16.50;99.90
1728;DHT22;861;48.808;9.006;2023-03-23T16:53:29;16.50;99.90
1728;DHT22;861;48.808;9.006;2023-03-23T16:55:57;16.40;99.90
1728;DHT22;861;48.808;9.006;2023-03-23T16:58:24;16.40;99.90
1728;DHT22;861;48.808;9.006;2023-03-23T17:00:51;16.50;99.90
1728;DHT22;861;48.808;9.006;2023-03-23T17:03:20;16.40;99.90
1728;DHT22;861;48.808;9.006;2023-03-23T17:05:51;16.30;99.90
1728;DHT22;861;48.808;9.006;2023-03-23T17:08:19;16.50;99.90
1728;DHT22;861;48.808;9.006;2023-03-23T17:10:47;16.40;99.90
1728;DHT22;861;48.808;9.006;2023-03-23T17:13:13;16.40;99.90
1728;DHT22;861;48.808;9.006;2023-03-23T17:15:42;16.40;99.90
1728;DHT22;861;48.808;9.006;2023-03-23T17:18:10;16.40;99.90
1728;DHT22;861;48.808;9.006;2023-03-23T17:20:37;16.30;99.90
1728;DHT22;861;48.808;9.006;2023-03-23T17:23:04;16.40;99.90
1728;DHT22;861;48.808;9.006;2023-03-23T17:25:30;16.40;99.90
1728;DHT22;861;48.808;9.006;2023-03-23T17:27:58;16.10;99.90
1728;DHT22;861;48.808;9.006;2023-03-23T17:30:25;16.30;99.90
1728;DHT22;861;48.808;9.006;2023-03-23T17:32:53;16.20;99.90
1728;DHT22;861;48.808;9.006;2023-03-23T17:35:19;16.20;99.90
1728;DHT22;861;48.808;9.006;2023-03-23T17:37:46;16.10;99.90
1728;DHT22;861;48.808;9.006;2023-03-23T17:40:15;16.10;99.90
1728;DHT22;861;48.808;9.006;2023-03-23T17:42:42;16.10;99.90
1728;DHT22;861;48.808;9.006;2023-03-23T17:45:09;16.10;99.90
1728;DHT22;861;48.808;9.006;2023-03-23T17:47:36;16.10;99.90
1728;DHT22;861;48.808;9.006;2023-03-23T17:50:05;16.00;99.90
1728;DHT22;861;48.808;9.006;2023-03-23T17:52:35;16.10;99.90
1728;DHT22;861;48.808;9.006;2023-03-23T17:55:02;16.00;99.90
1728;DHT22;861;48.808;9.006;2023-03-23T17:57:29;16.00;99.90
1728;DHT22;861;48.808;9.006;2023-03-23T17:59:56;15.80;99.90
1728;DHT22;861;48.808;9.006;2023-03-23T18:02:22;15.80;99.90
1728;DHT22;861;48.808;9.006;2023-03-23T18:05:13;15.80;99.90
1728;DHT22;861;48.808;9.006;2023-03-23T18:07:40;15.90;99.90
1728;DHT22;861;48.808;9.006;2023-03-23T18:10:07;15.90;99.90
1728;DHT22;861;48.808;9.006;2023-03-23T18:12:44;15.90;99.90
1728;DHT22;861;48.808;9.006;2023-03-23T18:15:16;15.90;99.90
1728;DHT22;861;48.808;9.006;2023-03-23T18:17:43;15.90;99.90
1728;DHT22;861;48.808;9.006;2023-03-23T18:20:13;15.80;99.90
1728;DHT22;861;48.808;9.006;2023-03-23T18:22:39;15.90;99.90
1728;DHT22;861;48.808;9.006;2023-03-23T18:25:05;15.80;99.90
1728;DHT22;861;48.808;9.006;2023-03-23T18:27:33;15.70;99.90
1728;DHT22;861;48.808;9.006;2023-03-23T18:30:00;15.70;99.90
1728;DHT22;861;48.808;9.006;2023-03-23T18:32:28;15.70;99.90
1728;DHT22;861;48.808;9.006;2023-03-23T18:34:54;15.70;99.90
1728;DHT22;861;48.808;9.006;2023-03-23T18:37:20;15.70;99.90
1728;DHT22;861;48.808;9.006;2023-03-23T18:39:46;15.70;99.90
1728;DHT22;861;48.808;9.006;2023-03-23T18:42:13;15.60;99.90
1728;DHT22;861;48.808;9.006;2023-03-23T18:44:39;15.60;99.90
1728;DHT22;861;48.808;9.006;2023-03-23T18:47:05;15.60;99.90
1728;DHT22;861;48.808;9.006;2023-03-23T18:49:31;15.60;99.90
1728;DHT22;861;48.808;9.006;2023-03-23T18:54:26;15.50;99.90
1728;DHT22;861;48.808;9.006;2023-03-23T18:56:54;15.50;99.90
1728;DHT22;861;48.808;9.006;2023-03-23T18:59:20;15.50;99.90
1728;DHT22;861;48.808;9.006;2023-03-23T19:01:50;15.50;99.90
1728;DHT22;861;48.808;9.006;2023-03-23T19:06:51;15.50;99.90
1728;DHT22;861;48.808;9.006;2023-03-23T19:11:45;15.50;99.90
1728;DHT22;861;48.808;9.006;2023-03-23T19:14:12;15.50;99.90
1728;DHT22;861;48.808;9.006;2023-03-23T19:19:06;15.40;99.90
1728;DHT22;861;48.808;9.006;2023-03-23T19:21:37;15.40;99.90
1728;DHT22;861;48.808;9.006;2023-03-23T19:26:43;15.30;99.90
1728;DHT22;861;48.808;9.006;2023-03-23T19:29:16;15.30;99.90
1728;DHT22;861;48.808;9.006;2023-03-23T19:31:45;15.40;99.90
1728;DHT22;861;48.808;9.006;2023-03-23T19:36:41;15.30;99.90
1728;DHT22;861;48.808;9.006;2023-03-23T19:39:12;15.30;99.90
1728;DHT22;861;48.808;9.006;2023-03-23T19:41:38;15.20;99.90
1728;DHT22;861;48.808;9.006;2023-03-23T19:44:06;15.20;99.90
1728;DHT22;861;48.808;9.006;2023-03-23T19:46:33;15.30;99.90
1728;DHT22;861;48.808;9.006;2023-03-23T19:49:00;15.30;99.90
1728;DHT22;861;48.808;9.006;2023-03-23T19:51:27;15.30;99.90
1728;DHT22;861;48.808;9.006;2023-03-23T19:53:56;15.30;99.90
1728;DHT22;861;48.808;9.006;2023-03-23T19:56:23;15.10;99.90
1728;DHT22;861;48.808;9.006;2023-03-23T19:58:50;15.10;99.90
1728;DHT22;861;48.808;9.006;2023-03-23T20:01:17;15.20;99.90
1728;DHT22;861;48.808;9.006;2023-03-23T20:03:44;15.20;99.90
1728;DHT22;861;48.808;9.006;2023-03-23T20:06:13;15.10;99.90
1728;DHT22;861;48.808;9.006;2023-03-23T20:08:44;15.00;99.90
1728;DHT22;861;48.808;9.006;2023-03-23T20:11:18;15.00;99.90
1728;DHT22;861;48.808;9.006;2023-03-23T20:13:47;14.90;99.90
1728;DHT22;861;48.808;9.006;2023-03-23T20:16:17;15.00;99.90
1728;DHT22;861;48.808;9.006;2023-03-23T20:18:44;15.00;99.90
1728;DHT22;861;48.808;9.006;2023-03-23T20:21:20;15.00;99.90
1728;DHT22;861;48.808;9.006;2023-03-23T20:23:54;15.00;99.90
1728;DHT22;861;48.808;9.006;2023-03-23T20:26:30;15.00;99.90
1728;DHT22;861;48.808;9.006;2023-03-23T20:29:04;15.10;99.90
1728;DHT22;861;48.808;9.006;2023-03-23T20:31:36;15.00;99.90
1728;DHT22;861;48.808;9.006;2023-03-23T20:34:15;15.00;99.90
1728;DHT22;861;48.808;9.006;2023-03-23T20:36:53;15.00;99.90
1728;DHT22;861;48.808;9.006;2023-03-23T20:39:24;14.90;99.90
1728;DHT22;861;48.808;9.006;2023-03-23T20:41:57;14.90;99.90
1728;DHT22;861;48.808;9.006;2023-03-23T20:44:31;15.00;99.90
1728;DHT22;861;48.808;9.006;2023-03-23T20:47:01;15.00;99.90
1728;DHT22;861;48.808;9.006;2023-03-23T20:49:33;14.90;99.90
1728;DHT22;861;48.808;9.006;2023-03-23T20:52:07;14.90;99.90
1728;DHT22;861;48.808;9.006;2023-03-23T20:54:34;14.80;99.90
1728;DHT22;861;48.808;9.006;2023-03-23T20:57:03;14.80;99.90
1728;DHT22;861;48.808;9.006;2023-03-23T20:59:29;14.80;99.90
1728;DHT22;861;48.808;9.006;2023-03-23T21:01:55;14.70;99.90
1728;DHT22;861;48.808;9.006;2023-03-23T21:04:24;14.80;99.90
1728;DHT22;861;48.808;9.006;2023-03-23T21:06:53;14.70;99.90
1728;DHT22;861;48.808;9.006;2023-03-23T21:09:20;14.70;99.90
1728;DHT22;861;48.808;9.006;2023-03-23T21:11:47;14.70;99.90
1728;DHT22;861;48.808;9.006;2023-03-23T21:14:18;14.80;99.90
1728;DHT22;861;48.808;9.006;2023-03-23T21:16:45;14.80;99.90
1728;DHT22;861;48.808;9.006;2023-03-23T21:19:11;14.70;99.90
1728;DHT22;861;48.808;9.006;2023-03-23T21:21:39;14.60;99.90
1728;DHT22;861;48.808;9.006;2023-03-23T21:24:09;14.60;99.90
1728;DHT22;861;48.808;9.006;2023-03-23T21:26:39;14.50;99.90
1728;DHT22;861;48.808;9.006;2023-03-23T21:29:06;14.40;99.90
1728;DHT22;861;48.808;9.006;2023-03-23T21:31:37;14.30;99.90
1728;DHT22;861;48.808;9.006;2023-03-23T21:34:04;14.40;99.90
1728;DHT22;861;48.808;9.006;2023-03-23T21:36:31;14.50;99.90
1728;DHT22;861;48.808;9.006;2023-03-23T21:38:58;14.50;99.90
1728;DHT22;861;48.808;9.006;2023-03-23T21:41:27;14.40;99.90
1728;DHT22;861;48.808;9.006;2023-03-23T21:44:00;14.50;99.90
1728;DHT22;861;48.808;9.006;2023-03-23T21:46:31;14.50;99.90
1728;DHT22;861;48.808;9.006;2023-03-23T21:48:57;14.50;99.90
1728;DHT22;861;48.808;9.006;2023-03-23T21:51:27;14.60;99.90
1728;DHT22;861;48.808;9.006;2023-03-23T21:53:55;14.60;99.90
1728;DHT22;861;48.808;9.006;2023-03-23T21:56:25;14.50;99.90
1728;DHT22;861;48.808;9.006;2023-03-23T21:58:53;14.50;99.90
1728;DHT22;861;48.808;9.006;2023-03-23T22:01:22;14.50;99.90
1728;DHT22;861;48.808;9.006;2023-03-23T22:03:49;14.60;99.90
1728;DHT22;861;48.808;9.006;2023-03-23T22:06:22;14.60;99.90
1728;DHT22;861;48.808;9.006;2023-03-23T22:08:55;14.50;99.90
1728;DHT22;861;48.808;9.006;2023-03-23T22:11:25;14.40;99.90
1728;DHT22;861;48.808;9.006;2023-03-23T22:13:58;14.30;99.90
1728;DHT22;861;48.808;9.006;2023-03-23T22:16:26;14.30;99.90
1728;DHT22;861;48.808;9.006;2023-03-23T22:18:54;14.30;99.90
1728;DHT22;861;48.808;9.006;2023-03-23T22:21:24;14.30;99.90
1728;DHT22;861;48.808;9.006;2023-03-23T22:23:55;14.20;99.90
1728;DHT22;861;48.808;9.006;2023-03-23T22:26:26;14.30;99.90
1728;DHT22;861;48.808;9.006;2023-03-23T22:28:57;14.50;99.90
1728;DHT22;861;48.808;9.006;2023-03-23T22:31:31;14.50;99.90
1728;DHT22;861;48.808;9.006;2023-03-23T22:34:00;14.40;99.90
1728;DHT22;861;48.808;9.006;2023-03-23T22:36:29;14.50;99.90
1728;DHT22;861;48.808;9.006;2023-03-23T22:38:59;14.50;99.90
1728;DHT22;861;48.808;9.006;2023-03-23T22:41:30;14.60;99.90
1728;DHT22;861;48.808;9.006;2023-03-23T22:44:00;14.40;99.90
1728;DHT22;861;48.808;9.006;2023-03-23T22:46:26;14.50;99.90
1728;DHT22;861;48.808;9.006;2023-03-23T22:48:53;14.40;99.90
1728;DHT22;861;48.808;9.006;2023-03-23T22:51:20;14.40;99.90
1728;DHT22;861;48.808;9.006;2023-03-23T22:53:48;14.30;99.90
1728;DHT22;861;48.808;9.006;2023-03-23T22:56:15;14.30;99.90
1728;DHT22;861;48.808;9.006;2023-03-23T22:58:43;14.40;99.90
1728;DHT22;861;48.808;9.006;2023-03-23T23:01:17;14.40;99.90
1728;DHT22;861;48.808;9.006;2023-03-23T23:03:46;14.30;99.90
1728;DHT22;861;48.808;9.006;2023-03-23T23:06:17;14.20;99.90
1728;DHT22;861;48.808;9.006;2023-03-23T23:08:47;14.20;99.90
1728;DHT22;861;48.808;9.006;2023-03-23T23:11:16;14.10;99.90
1728;DHT22;861;48.808;9.006;2023-03-23T23:13:46;13.90;99.90
1728;DHT22;861;48.808;9.006;2023-03-23T23:16:15;13.80;99.90
1728;DHT22;861;48.808;9.006;2023-03-23T23:18:45;13.70;99.90
1728;DHT22;861;48.808;9.006;2023-03-23T23:21:18;13.70;99.90
1728;DHT22;861;48.808;9.006;2023-03-23T23:23:48;13.60;99.90
1728;DHT22;861;48.808;9.006;2023-03-23T23:26:17;13.70;99.90
1728;DHT22;861;48.808;9.006;2023-03-23T23:28:46;13.80;99.90
1728;DHT22;861;48.808;9.006;2023-03-23T23:31:25;13.80;99.90
1728;DHT22;861;48.808;9.006;2023-03-23T23:33:59;13.80;99.90